Terminal Aerodrome Forecast
Issued by NWS Charleston, WV

Current Version | Previous Version | Text Only | Print | Product List | Glossary Off
Versions: 1 2 3 4 5 6 7 8 9 10 11 12 13 14 15 16 17 18 19 20 21 22 23 24 25 26

107
FTUS41 KRLX 150234 AAA
TAFBKW
TAF AMD
KBKW 150234Z 1503/1524 32006KT 3SM -SHRA BR OVC004
      TEMPO 1503/1505 1SM -RA BR OVC002
     FM150600 35004KT 1SM -DZ BR OVC003
     FM151200 01004KT 2SM BR OVC004
     FM151600 02004KT 4SM BR OVC010
     FM151800 08005KT P6SM OVC018
     FM152000 13005KT P6SM BKN025=

USA.gov is the U.S. government's official web portal to all federal, state and local government web resources and services.